sensor_id;sensor_type;location;lat;lon;timestamp;pressure;altitude;pressure_sealevel;temperature
70435;BMP280;57876;47.792;12.960;2022-10-16T00:00:37;96918.66;;;18.67
70435;BMP280;57876;47.792;12.960;2022-10-16T00:03:03;96917.94;;;18.67
70435;BMP280;57876;47.792;12.960;2022-10-16T00:05:28;96915.19;;;18.67
70435;BMP280;57876;47.792;12.960;2022-10-16T00:07:52;96918.66;;;18.67
70435;BMP280;57876;47.792;12.960;2022-10-16T00:10:16;96913.19;;;18.67
70435;BMP280;57876;47.792;12.960;2022-10-16T00:12:41;96922.69;;;18.67
70435;BMP280;57876;47.792;12.960;2022-10-16T00:15:06;96919.97;;;18.67
70435;BMP280;57876;47.792;12.960;2022-10-16T00:17:30;96919.22;;;18.66
70435;BMP280;57876;47.792;12.960;2022-10-16T00:19:55;96927.44;;;18.66
70435;BMP280;57876;47.792;12.960;2022-10-16T00:22:19;96923.97;;;18.65
70435;BMP280;57876;47.792;12.960;2022-10-16T00:24:46;96926.00;;;18.65
70435;BMP280;57876;47.792;12.960;2022-10-16T00:27:11;96921.09;;;18.64
70435;BMP280;57876;47.792;12.960;2022-10-16T00:29:35;96924.53;;;18.64
70435;BMP280;57876;47.792;12.960;2022-10-16T00:31:59;96932.06;;;18.64
70435;BMP280;57876;47.792;12.960;2022-10-16T00:34:24;96930.75;;;18.64
70435;BMP280;57876;47.792;12.960;2022-10-16T00:36:48;96937.53;;;18.64
70435;BMP280;57876;47.792;12.960;2022-10-16T00:39:13;96934.09;;;18.63
70435;BMP280;57876;47.792;12.960;2022-10-16T00:41:37;96936.81;;;18.63
70435;BMP280;57876;47.792;12.960;2022-10-16T00:44:40;96938.13;;;18.62
70435;BMP280;57876;47.792;12.960;2022-10-16T00:46:47;96936.09;;;18.63
70435;BMP280;57876;47.792;12.960;2022-10-16T00:49:17;96937.38;;;18.62
70435;BMP280;57876;47.792;12.960;2022-10-16T00:51:48;96948.34;;;18.62
70435;BMP280;57876;47.792;12.960;2022-10-16T00:54:16;96942.84;;;18.62
70435;BMP280;57876;47.792;12.960;2022-10-16T00:56:42;96946.34;;;18.62
70435;BMP280;57876;47.792;12.960;2022-10-16T00:59:16;96945.59;;;18.62
70435;BMP280;57876;47.792;12.960;2022-10-16T01:01:42;96944.88;;;18.61
70435;BMP280;57876;47.792;12.960;2022-10-16T01:04:06;96948.34;;;18.62
70435;BMP280;57876;47.792;12.960;2022-10-16T01:06:45;96957.84;;;18.61
70435;BMP280;57876;47.792;12.960;2022-10-16T01:14:46;96948.91;;;18.60
70435;BMP280;57876;47.792;12.960;2022-10-16T01:17:15;96943.44;;;18.60
70435;BMP280;57876;47.792;12.960;2022-10-16T01:22:25;96941.28;;;18.59
70435;BMP280;57876;47.792;12.960;2022-10-16T01:24:52;96943.28;;;18.58
70435;BMP280;57876;47.792;12.960;2022-10-16T01:29:52;96950.78;;;18.58
70435;BMP280;57876;47.792;12.960;2022-10-16T01:34:49;96950.78;;;18.58
70435;BMP280;57876;47.792;12.960;2022-10-16T01:37:20;96954.22;;;18.58
70435;BMP280;57876;47.792;12.960;2022-10-16T01:39:47;96944.56;;;18.57
70435;BMP280;57876;47.792;12.960;2022-10-16T01:42:22;96955.53;;;18.57
70435;BMP280;57876;47.792;12.960;2022-10-16T01:44:49;96947.31;;;18.57
70435;BMP280;57876;47.792;12.960;2022-10-16T01:47:15;96943.84;;;18.57
70435;BMP280;57876;47.792;12.960;2022-10-16T01:49:42;96937.63;;;18.56
70435;BMP280;57876;47.792;12.960;2022-10-16T01:52:12;96932.16;;;18.56
70435;BMP280;57876;47.792;12.960;2022-10-16T01:54:39;96934.19;;;18.56
70435;BMP280;57876;47.792;12.960;2022-10-16T01:57:05;96941.66;;;18.55
70435;BMP280;57876;47.792;12.960;2022-10-16T01:59:32;96937.63;;;18.56
70435;BMP280;57876;47.792;12.960;2022-10-16T02:02:02;96930.00;;;18.55
70435;BMP280;57876;47.792;12.960;2022-10-16T02:04:32;96936.91;;;18.56
70435;BMP280;57876;47.792;12.960;2022-10-16T02:06:57;96933.44;;;18.55
70435;BMP280;57876;47.792;12.960;2022-10-16T02:09:22;96935.50;;;18.55
70435;BMP280;57876;47.792;12.960;2022-10-16T02:11:46;96938.22;;;18.55
70435;BMP280;57876;47.792;12.960;2022-10-16T02:14:13;96941.66;;;18.55
70435;BMP280;57876;47.792;12.960;2022-10-16T02:16:40;96937.50;;;18.54
70435;BMP280;57876;47.792;12.960;2022-10-16T02:19:05;96937.50;;;18.54
70435;BMP280;57876;47.792;12.960;2022-10-16T02:24:08;96945.00;;;18.54
70435;BMP280;57876;47.792;12.960;2022-10-16T02:29:51;96940.22;;;18.54
70435;BMP280;57876;47.792;12.960;2022-10-16T02:32:20;96942.97;;;18.54
70435;BMP280;57876;47.792;12.960;2022-10-16T02:34:46;96945.00;;;18.54
70435;BMP280;57876;47.792;12.960;2022-10-16T02:37:12;96942.25;;;18.54
70435;BMP280;57876;47.792;12.960;2022-10-16T02:39:38;96947.00;;;18.53
70435;BMP280;57876;47.792;12.960;2022-10-16T02:42:02;96960.00;;;18.53
70435;BMP280;57876;47.792;12.960;2022-10-16T02:44:27;96953.06;;;18.52
70435;BMP280;57876;47.792;12.960;2022-10-16T02:46:51;96949.59;;;18.51
70435;BMP280;57876;47.792;12.960;2022-10-16T02:49:16;96962.72;;;18.53
70435;BMP280;57876;47.792;12.960;2022-10-16T02:51:40;96964.72;;;18.52
70435;BMP280;57876;47.792;12.960;2022-10-16T02:54:05;96962.53;;;18.51
70435;BMP280;57876;47.792;12.960;2022-10-16T02:56:29;96965.28;;;18.51
70435;BMP280;57876;47.792;12.960;2022-10-16T02:58:55;96962.53;;;18.51
70435;BMP280;57876;47.792;12.960;2022-10-16T03:01:19;96966.75;;;18.52
70435;BMP280;57876;47.792;12.960;2022-10-16T03:03:43;96968.63;;;18.49
70435;BMP280;57876;47.792;12.960;2022-10-16T03:06:08;96973.50;;;18.51
70435;BMP280;57876;47.792;12.960;2022-10-16T03:08:32;96974.81;;;18.50
70435;BMP280;57876;47.792;12.960;2022-10-16T03:10:57;96983.78;;;18.50
70435;BMP280;57876;47.792;12.960;2022-10-16T03:13:21;96983.03;;;18.50
70435;BMP280;57876;47.792;12.960;2022-10-16T03:15:46;96981.03;;;18.50
70435;BMP280;57876;47.792;12.960;2022-10-16T03:18:10;96979.59;;;18.49
70435;BMP280;57876;47.792;12.960;2022-10-16T03:20:34;96983.03;;;18.50
70435;BMP280;57876;47.792;12.960;2022-10-16T03:22:59;96969.91;;;18.48
70435;BMP280;57876;47.792;12.960;2022-10-16T03:25:23;96978.13;;;18.48
70435;BMP280;57876;47.792;12.960;2022-10-16T03:27:48;96979.59;;;18.49
70435;BMP280;57876;47.792;12.960;2022-10-16T03:30:12;96980.13;;;18.48
70435;BMP280;57876;47.792;12.960;2022-10-16T03:32:36;96969.91;;;18.48
70435;BMP280;57876;47.792;12.960;2022-10-16T03:35:01;96966.44;;;18.48
70435;BMP280;57876;47.792;12.960;2022-10-16T03:37:25;96967.88;;;18.49
70435;BMP280;57876;47.792;12.960;2022-10-16T03:39:50;96978.13;;;18.48
70435;BMP280;57876;47.792;12.960;2022-10-16T03:42:14;96969.91;;;18.48
70435;BMP280;57876;47.792;12.960;2022-10-16T03:44:38;96977.41;;;18.48
70435;BMP280;57876;47.792;12.960;2022-10-16T03:47:03;96974.66;;;18.48
70435;BMP280;57876;47.792;12.960;2022-10-16T03:49:27;96980.13;;;18.48
70435;BMP280;57876;47.792;12.960;2022-10-16T03:51:52;96989.09;;;18.48
70435;BMP280;57876;47.792;12.960;2022-10-16T03:54:16;96992.38;;;18.47
70435;BMP280;57876;47.792;12.960;2022-10-16T03:56:40;96998.59;;;18.47
70435;BMP280;57876;47.792;12.960;2022-10-16T03:59:05;96995.88;;;18.47
70435;BMP280;57876;47.792;12.960;2022-10-16T04:01:29;96989.63;;;18.47
70435;BMP280;57876;47.792;12.960;2022-10-16T04:03:53;96996.44;;;18.46
70435;BMP280;57876;47.792;12.960;2022-10-16T04:06:18;96999.88;;;18.46
70435;BMP280;57876;47.792;12.960;2022-10-16T04:08:43;96998.59;;;18.47
70435;BMP280;57876;47.792;12.960;2022-10-16T04:11:08;97002.63;;;18.46
70435;BMP280;57876;47.792;12.960;2022-10-16T04:13:32;96996.56;;;18.48
70435;BMP280;57876;47.792;12.960;2022-10-16T04:15:56;97008.81;;;18.47
70435;BMP280;57876;47.792;12.960;2022-10-16T04:18:21;97005.38;;;18.46
70435;BMP280;57876;47.792;12.960;2022-10-16T04:20:45;97004.09;;;18.47
70435;BMP280;57876;47.792;12.960;2022-10-16T04:23:09;97008.81;;;18.47
70435;BMP280;57876;47.792;12.960;2022-10-16T04:25:34;97008.81;;;18.47
70435;BMP280;57876;47.792;12.960;2022-10-16T04:27:58;96999.88;;;18.46
70435;BMP280;57876;47.792;12.960;2022-10-16T04:30:23;97003.34;;;18.47
70435;BMP280;57876;47.792;12.960;2022-10-16T04:32:51;96991.66;;;18.46
70435;BMP280;57876;47.792;12.960;2022-10-16T04:35:17;96986.34;;;18.48
70435;BMP280;57876;47.792;12.960;2022-10-16T04:37:41;96988.50;;;18.50
70435;BMP280;57876;47.792;12.960;2022-10-16T04:40:06;96988.09;;;18.53
70435;BMP280;57876;47.792;12.960;2022-10-16T04:42:30;97006.28;;;18.58
70435;BMP280;57876;47.792;12.960;2022-10-16T04:44:55;96989.03;;;18.65
70435;BMP280;57876;47.792;12.960;2022-10-16T04:47:19;96995.72;;;18.71
70435;BMP280;57876;47.792;12.960;2022-10-16T04:49:43;96995.44;;;18.77
70435;BMP280;57876;47.792;12.960;2022-10-16T04:52:08;97005.41;;;18.82
70435;BMP280;57876;47.792;12.960;2022-10-16T04:54:33;97005.72;;;18.86
70435;BMP280;57876;47.792;12.960;2022-10-16T04:56:58;97003.31;;;18.90
70435;BMP280;57876;47.792;12.960;2022-10-16T04:59:22;97008.91;;;18.92
70435;BMP280;57876;47.792;12.960;2022-10-16T05:01:47;97016.16;;;18.97
70435;BMP280;57876;47.792;12.960;2022-10-16T05:04:11;97015.72;;;19.00
70435;BMP280;57876;47.792;12.960;2022-10-16T05:06:37;97015.88;;;19.02
70435;BMP280;57876;47.792;12.960;2022-10-16T05:09:02;97018.06;;;19.04
70435;BMP280;57876;47.792;12.960;2022-10-16T05:11:27;97010.53;;;19.04
70435;BMP280;57876;47.792;12.960;2022-10-16T05:13:51;97009.97;;;19.06
70435;BMP280;57876;47.792;12.960;2022-10-16T05:16:16;97002.47;;;19.06
70435;BMP280;57876;47.792;12.960;2022-10-16T05:18:40;97004.66;;;19.08
70435;BMP280;57876;47.792;12.960;2022-10-16T05:21:04;97006.66;;;19.07
70435;BMP280;57876;47.792;12.960;2022-10-16T05:23:29;97010.16;;;19.08
70435;BMP280;57876;47.792;12.960;2022-10-16T05:25:55;97015.63;;;19.08
70435;BMP280;57876;47.792;12.960;2022-10-16T05:28:22;97023.84;;;19.08
70435;BMP280;57876;47.792;12.960;2022-10-16T05:30:46;97029.34;;;19.08
70435;BMP280;57876;47.792;12.960;2022-10-16T05:33:10;97025.16;;;19.07
70435;BMP280;57876;47.792;12.960;2022-10-16T05:35:35;97036.81;;;19.07
70435;BMP280;57876;47.792;12.960;2022-10-16T05:37:59;97041.59;;;19.07
70435;BMP280;57876;47.792;12.960;2022-10-16T05:40:24;97037.97;;;19.04
70435;BMP280;57876;47.792;12.960;2022-10-16T05:42:48;97045.47;;;19.04
70435;BMP280;57876;47.792;12.960;2022-10-16T05:45:12;97059.75;;;19.02
70435;BMP280;57876;47.792;12.960;2022-10-16T05:47:37;97059.03;;;19.02
70435;BMP280;57876;47.792;12.960;2022-10-16T05:50:02;97070.72;;;19.02
70435;BMP280;57876;47.792;12.960;2022-10-16T05:52:28;97057.56;;;19.01
70435;BMP280;57876;47.792;12.960;2022-10-16T05:54:52;97065.66;;;18.99
70435;BMP280;57876;47.792;12.960;2022-10-16T05:57:17;97064.94;;;18.98
70435;BMP280;57876;47.792;12.960;2022-10-16T05:59:41;97066.25;;;18.97
70435;BMP280;57876;47.792;12.960;2022-10-16T06:02:06;97068.25;;;18.97
70435;BMP280;57876;47.792;12.960;2022-10-16T06:04:31;97061.31;;;18.96
70435;BMP280;57876;47.792;12.960;2022-10-16T06:06:58;97073.56;;;18.95
70435;BMP280;57876;47.792;12.960;2022-10-16T06:09:24;97068.66;;;18.93
70435;BMP280;57876;47.792;12.960;2022-10-16T06:11:48;97070.69;;;18.93
70435;BMP280;57876;47.792;12.960;2022-10-16T06:14:13;97077.47;;;18.92
70435;BMP280;57876;47.792;12.960;2022-10-16T06:16:37;97071.97;;;18.92
70435;BMP280;57876;47.792;12.960;2022-10-16T06:19:02;97078.00;;;18.90
70435;BMP280;57876;47.792;12.960;2022-10-16T06:21:30;97076.59;;;18.89
70435;BMP280;57876;47.792;12.960;2022-10-16T06:23:55;97078.63;;;18.89
70435;BMP280;57876;47.792;12.960;2022-10-16T06:26:22;97072.38;;;18.88
70435;BMP280;57876;47.792;12.960;2022-10-16T06:28:47;97076.41;;;18.87
70435;BMP280;57876;47.792;12.960;2022-10-16T06:31:12;97075.69;;;18.87
70435;BMP280;57876;47.792;12.960;2022-10-16T06:33:38;97074.25;;;18.86
70435;BMP280;57876;47.792;12.960;2022-10-16T06:36:08;97074.84;;;18.84
70435;BMP280;57876;47.792;12.960;2022-10-16T06:38:33;97077.00;;;18.86
70435;BMP280;57876;47.792;12.960;2022-10-16T06:40:57;97079.56;;;18.84
70435;BMP280;57876;47.792;12.960;2022-10-16T06:43:22;97084.34;;;18.83
70435;BMP280;57876;47.792;12.960;2022-10-16T06:45:54;97075.38;;;18.83
70435;BMP280;57876;47.792;12.960;2022-10-16T06:48:19;97080.16;;;18.82
70435;BMP280;57876;47.792;12.960;2022-10-16T06:50:43;97077.41;;;18.82
70435;BMP280;57876;47.792;12.960;2022-10-16T06:53:07;97074.50;;;18.80
70435;BMP280;57876;47.792;12.960;2022-10-16T06:55:32;97083.47;;;18.81
70435;BMP280;57876;47.792;12.960;2022-10-16T06:57:56;97079.28;;;18.80
70435;BMP280;57876;47.792;12.960;2022-10-16T07:00:20;97071.94;;;18.82
70435;BMP280;57876;47.792;12.960;2022-10-16T07:02:45;97072.50;;;18.81
70435;BMP280;57876;47.792;12.960;2022-10-16T07:05:09;97078.69;;;18.81
70435;BMP280;57876;47.792;12.960;2022-10-16T07:07:33;97080.16;;;18.82
70435;BMP280;57876;47.792;12.960;2022-10-16T07:09:58;97082.91;;;18.82
70435;BMP280;57876;47.792;12.960;2022-10-16T07:12:22;97078.88;;;18.83
70435;BMP280;57876;47.792;12.960;2022-10-16T07:14:47;97074.66;;;18.82
70435;BMP280;57876;47.792;12.960;2022-10-16T07:17:11;97080.16;;;18.82
70435;BMP280;57876;47.792;12.960;2022-10-16T07:19:36;97084.34;;;18.83
70435;BMP280;57876;47.792;12.960;2022-10-16T07:22:01;97093.28;;;18.84
70435;BMP280;57876;47.792;12.960;2022-10-16T07:24:25;97090.53;;;18.84
70435;BMP280;57876;47.792;12.960;2022-10-16T07:26:49;97094.75;;;18.85
70435;BMP280;57876;47.792;12.960;2022-10-16T07:29:19;97101.50;;;18.84
70435;BMP280;57876;47.792;12.960;2022-10-16T07:31:45;97099.50;;;18.84
70435;BMP280;57876;47.792;12.960;2022-10-16T07:34:11;97102.97;;;18.85
70435;BMP280;57876;47.792;12.960;2022-10-16T07:36:36;97107.16;;;18.86
70435;BMP280;57876;47.792;12.960;2022-10-16T07:39:00;97107.72;;;18.84
70435;BMP280;57876;47.792;12.960;2022-10-16T07:41:25;97104.41;;;18.86
70435;BMP280;57876;47.792;12.960;2022-10-16T07:43:51;97110.59;;;18.86
70435;BMP280;57876;47.792;12.960;2022-10-16T07:46:17;97110.59;;;18.86
70435;BMP280;57876;47.792;12.960;2022-10-16T07:48:43;97104.41;;;18.86
70435;BMP280;57876;47.792;12.960;2022-10-16T07:51:14;97105.84;;;18.87
70435;BMP280;57876;47.792;12.960;2022-10-16T07:53:39;97109.31;;;18.87
70435;BMP280;57876;47.792;12.960;2022-10-16T07:56:05;97117.53;;;18.87
70435;BMP280;57876;47.792;12.960;2022-10-16T07:58:30;97109.31;;;18.87
70435;BMP280;57876;47.792;12.960;2022-10-16T08:00:56;97117.53;;;18.87
70435;BMP280;57876;47.792;12.960;2022-10-16T08:03:20;97123.03;;;18.87
70435;BMP280;57876;47.792;12.960;2022-10-16T08:05:45;97116.81;;;18.87
70435;BMP280;57876;47.792;12.960;2022-10-16T08:08:14;97115.50;;;18.88
70435;BMP280;57876;47.792;12.960;2022-10-16T08:10:39;97117.72;;;18.89
70435;BMP280;57876;47.792;12.960;2022-10-16T08:13:03;97118.25;;;18.88
70435;BMP280;57876;47.792;12.960;2022-10-16T08:15:27;97124.47;;;18.88
70435;BMP280;57876;47.792;12.960;2022-10-16T08:17:58;97129.41;;;18.90
70435;BMP280;57876;47.792;12.960;2022-10-16T08:20:23;97129.41;;;18.90
70435;BMP280;57876;47.792;12.960;2022-10-16T08:23:11;97135.59;;;18.90
70435;BMP280;57876;47.792;12.960;2022-10-16T08:25:37;97127.34;;;18.90
70435;BMP280;57876;47.792;12.960;2022-10-16T08:28:06;97130.09;;;18.90
70435;BMP280;57876;47.792;12.960;2022-10-16T08:30:30;97132.84;;;18.90
70435;BMP280;57876;47.792;12.960;2022-10-16T08:32:55;97137.03;;;18.91
70435;BMP280;57876;47.792;12.960;2022-10-16T09:01:47;97158.44;;;18.93
70435;BMP280;57876;47.792;12.960;2022-10-16T09:12:12;97151.66;;;18.94
70435;BMP280;57876;47.792;12.960;2022-10-16T09:17:29;97152.38;;;18.94
70435;BMP280;57876;47.792;12.960;2022-10-16T09:20:03;97156.41;;;18.93
70435;BMP280;57876;47.792;12.960;2022-10-16T09:22:32;97147.59;;;18.95
70435;BMP280;57876;47.792;12.960;2022-10-16T09:25:00;97152.38;;;18.94
70435;BMP280;57876;47.792;12.960;2022-10-16T09:27:25;97158.56;;;18.95
70435;BMP280;57876;47.792;12.960;2022-10-16T09:29:55;97167.50;;;18.95
70435;BMP280;57876;47.792;12.960;2022-10-16T09:32:20;97166.78;;;18.95
70435;BMP280;57876;47.792;12.960;2022-10-16T09:34:54;97171.00;;;18.96
70435;BMP280;57876;47.792;12.960;2022-10-16T09:37:25;97172.28;;;18.95
70435;BMP280;57876;47.792;12.960;2022-10-16T09:39:52;97173.00;;;18.95
70435;BMP280;57876;47.792;12.960;2022-10-16T09:44:47;97170.25;;;18.95
70435;BMP280;57876;47.792;12.960;2022-10-16T09:47:17;97173.72;;;18.96
70435;BMP280;57876;47.792;12.960;2022-10-16T09:52:18;97180.66;;;18.97
70435;BMP280;57876;47.792;12.960;2022-10-16T09:55:18;97188.19;;;18.96
70435;BMP280;57876;47.792;12.960;2022-10-16T09:57:53;97185.44;;;18.96
70435;BMP280;57876;47.792;12.960;2022-10-16T10:00:18;97180.66;;;18.97
70435;BMP280;57876;47.792;12.960;2022-10-16T10:02:43;97183.41;;;18.97
70435;BMP280;57876;47.792;12.960;2022-10-16T10:05:40;97186.16;;;18.97
70435;BMP280;57876;47.792;12.960;2022-10-16T10:08:05;97186.91;;;18.97
70435;BMP280;57876;47.792;12.960;2022-10-16T10:10:32;97182.69;;;18.96
70435;BMP280;57876;47.792;12.960;2022-10-16T10:12:57;97177.22;;;18.96
70435;BMP280;57876;47.792;12.960;2022-10-16T10:15:22;97177.22;;;18.96
70435;BMP280;57876;47.792;12.960;2022-10-16T10:17:53;97183.41;;;18.97
70435;BMP280;57876;47.792;12.960;2022-10-16T10:20:34;97179.97;;;18.96
70435;BMP280;57876;47.792;12.960;2022-10-16T10:23:22;97177.94;;;18.97
70435;BMP280;57876;47.792;12.960;2022-10-16T10:26:26;97174.47;;;18.96
70435;BMP280;57876;47.792;12.960;2022-10-16T10:31:21;97181.41;;;18.97
70435;BMP280;57876;47.792;12.960;2022-10-16T10:36:27;97178.09;;;18.99
70435;BMP280;57876;47.792;12.960;2022-10-16T10:46:43;97176.06;;;18.99
70435;BMP280;57876;47.792;12.960;2022-10-16T10:57:35;97180.13;;;18.98
70435;BMP280;57876;47.792;12.960;2022-10-16T11:05:45;97170.44;;;18.97
70435;BMP280;57876;47.792;12.960;2022-10-16T11:08:38;97184.16;;;18.97
70435;BMP280;57876;47.792;12.960;2022-10-16T11:11:14;97182.88;;;18.98
70435;BMP280;57876;47.792;12.960;2022-10-16T11:13:52;97185.59;;;18.98
70435;BMP280;57876;47.792;12.960;2022-10-16T11:16:31;97176.63;;;18.98
70435;BMP280;57876;47.792;12.960;2022-10-16T11:19:11;97170.44;;;18.97
70435;BMP280;57876;47.792;12.960;2022-10-16T11:21:44;97175.91;;;18.97
70435;BMP280;57876;47.792;12.960;2022-10-16T11:24:22;97162.94;;;18.98
70435;BMP280;57876;47.792;12.960;2022-10-16T11:26:49;97162.94;;;18.98
70435;BMP280;57876;47.792;12.960;2022-10-16T11:29:23;97160.94;;;18.98
70435;BMP280;57876;47.792;12.960;2022-10-16T11:31:53;97155.44;;;18.98
70435;BMP280;57876;47.792;12.960;2022-10-16T11:34:38;97154.69;;;18.98
70435;BMP280;57876;47.792;12.960;2022-10-16T11:39:33;97156.88;;;18.99
70435;BMP280;57876;47.792;12.960;2022-10-16T11:47:51;97154.13;;;18.99
70435;BMP280;57876;47.792;12.960;2022-10-16T11:50:31;97147.94;;;18.99
70435;BMP280;57876;47.792;12.960;2022-10-16T11:55:32;97146.47;;;18.98
70435;BMP280;57876;47.792;12.960;2022-10-16T12:01:24;97143.03;;;18.97
70435;BMP280;57876;47.792;12.960;2022-10-16T12:09:30;97132.06;;;18.97
70435;BMP280;57876;47.792;12.960;2022-10-16T12:11:55;97136.78;;;18.97
70435;BMP280;57876;47.792;12.960;2022-10-16T12:16:54;97132.59;;;18.96
70435;BMP280;57876;47.792;12.960;2022-10-16T12:19:21;97133.50;;;18.98
70435;BMP280;57876;47.792;12.960;2022-10-16T12:21:46;97130.59;;;18.96
70435;BMP280;57876;47.792;12.960;2022-10-16T12:24:35;97134.06;;;18.97
70435;BMP280;57876;47.792;12.960;2022-10-16T12:27:01;97129.13;;;18.95
70435;BMP280;57876;47.792;12.960;2022-10-16T12:29:39;97131.84;;;18.95
70435;BMP280;57876;47.792;12.960;2022-10-16T12:32:33;97124.38;;;18.96
70435;BMP280;57876;47.792;12.960;2022-10-16T12:34:59;97136.09;;;18.96
70435;BMP280;57876;47.792;12.960;2022-10-16T12:37:26;97138.81;;;18.96
70435;BMP280;57876;47.792;12.960;2022-10-16T12:39:53;97134.59;;;18.95
70435;BMP280;57876;47.792;12.960;2022-10-16T12:44:52;97133.88;;;18.95
70435;BMP280;57876;47.792;12.960;2022-10-16T12:47:36;97131.16;;;18.95
70435;BMP280;57876;47.792;12.960;2022-10-16T12:50:01;97134.59;;;18.95
70435;BMP280;57876;47.792;12.960;2022-10-16T12:52:26;97135.91;;;18.94
70435;BMP280;57876;47.792;12.960;2022-10-16T12:54:56;97135.22;;;18.94
70435;BMP280;57876;47.792;12.960;2022-10-16T13:09:02;97128.28;;;18.93
70435;BMP280;57876;47.792;12.960;2022-10-16T13:25:26;97142.53;;;18.91
70435;BMP280;57876;47.792;12.960;2022-10-16T13:27:54;97136.31;;;18.91
70435;BMP280;57876;47.792;12.960;2022-10-16T13:30:24;97136.31;;;18.91
70435;BMP280;57876;47.792;12.960;2022-10-16T13:32:52;97138.34;;;18.90
70435;BMP280;57876;47.792;12.960;2022-10-16T13:35:24;97130.09;;;18.90
70435;BMP280;57876;47.792;12.960;2022-10-16T13:37:49;97141.06;;;18.90
70435;BMP280;57876;47.792;12.960;2022-10-16T13:40:20;97150.03;;;18.91
70435;BMP280;57876;47.792;12.960;2022-10-16T13:42:45;97152.63;;;18.89
70435;BMP280;57876;47.792;12.960;2022-10-16T13:45:21;97161.00;;;18.91
70435;BMP280;57876;47.792;12.960;2022-10-16T13:47:46;97160.25;;;18.90
70435;BMP280;57876;47.792;12.960;2022-10-16T13:50:16;97162.31;;;18.90
70435;BMP280;57876;47.792;12.960;2022-10-16T13:52:41;97164.31;;;18.89
70435;BMP280;57876;47.792;12.960;2022-10-16T13:55:12;97165.06;;;18.90
70435;BMP280;57876;47.792;12.960;2022-10-16T13:57:37;97172.53;;;18.89
70435;BMP280;57876;47.792;12.960;2022-10-16T14:00:02;97165.75;;;18.90
70435;BMP280;57876;47.792;12.960;2022-10-16T14:02:34;97167.06;;;18.89
70435;BMP280;57876;47.792;12.960;2022-10-16T14:05:01;97165.59;;;18.88
70435;BMP280;57876;47.792;12.960;2022-10-16T14:07:31;97162.88;;;18.88
70435;BMP280;57876;47.792;12.960;2022-10-16T14:10:00;97167.06;;;18.89
70435;BMP280;57876;47.792;12.960;2022-10-16T14:12:25;97162.88;;;18.88
70435;BMP280;57876;47.792;12.960;2022-10-16T14:14:52;97169.09;;;18.89
70435;BMP280;57876;47.792;12.960;2022-10-16T14:19:53;97163.59;;;18.89
70435;BMP280;57876;47.792;12.960;2022-10-16T14:24:55;97173.09;;;18.88
70435;BMP280;57876;47.792;12.960;2022-10-16T14:27:34;97164.88;;;18.88
70435;BMP280;57876;47.792;12.960;2022-10-16T14:32:32;97159.38;;;18.88
70435;BMP280;57876;47.792;12.960;2022-10-16T14:34:56;97157.38;;;18.88
70435;BMP280;57876;47.792;12.960;2022-10-16T14:37:26;97164.16;;;18.87
70435;BMP280;57876;47.792;12.960;2022-10-16T14:39:52;97160.66;;;18.87
70435;BMP280;57876;47.792;12.960;2022-10-16T14:42:19;97160.66;;;18.87
70435;BMP280;57876;47.792;12.960;2022-10-16T14:44:44;97163.41;;;18.87
70435;BMP280;57876;47.792;12.960;2022-10-16T14:47:16;97166.16;;;18.87
70435;BMP280;57876;47.792;12.960;2022-10-16T14:49:46;97159.97;;;18.86
70435;BMP280;57876;47.792;12.960;2022-10-16T14:52:11;97161.41;;;18.87
70435;BMP280;57876;47.792;12.960;2022-10-16T14:54:36;97166.75;;;18.85
70435;BMP280;57876;47.792;12.960;2022-10-16T14:57:00;97161.28;;;18.85
70435;BMP280;57876;47.792;12.960;2022-10-16T14:59:37;97159.97;;;18.86
70435;BMP280;57876;47.792;12.960;2022-10-16T15:04:46;97155.78;;;18.85
70435;BMP280;57876;47.792;12.960;2022-10-16T15:07:10;97156.50;;;18.86
70435;BMP280;57876;47.792;12.960;2022-10-16T15:09:34;97155.78;;;18.85
70435;BMP280;57876;47.792;12.960;2022-10-16T15:11:59;97158.53;;;18.85
70435;BMP280;57876;47.792;12.960;2022-10-16T15:14:23;97164.00;;;18.85
70435;BMP280;57876;47.792;12.960;2022-10-16T15:16:48;97162.00;;;18.86
70435;BMP280;57876;47.792;12.960;2022-10-16T15:19:12;97162.00;;;18.86
70435;BMP280;57876;47.792;12.960;2022-10-16T15:21:36;97157.94;;;18.87
70435;BMP280;57876;47.792;12.960;2022-10-16T15:24:01;97157.94;;;18.87
70435;BMP280;57876;47.792;12.960;2022-10-16T15:26:27;97164.16;;;18.87
70435;BMP280;57876;47.792;12.960;2022-10-16T15:28:52;97164.88;;;18.88
70435;BMP280;57876;47.792;12.960;2022-10-16T15:31:16;97164.88;;;18.88
70435;BMP280;57876;47.792;12.960;2022-10-16T15:33:40;97169.81;;;18.89
70435;BMP280;57876;47.792;12.960;2022-10-16T15:36:05;97168.50;;;18.90
70435;BMP280;57876;47.792;12.960;2022-10-16T15:38:30;97178.91;;;18.92
70435;BMP280;57876;47.792;12.960;2022-10-16T15:40:55;97173.44;;;18.92
70435;BMP280;57876;47.792;12.960;2022-10-16T15:43:19;97174.88;;;18.93
70435;BMP280;57876;47.792;12.960;2022-10-16T15:45:47;97185.28;;;18.94
70435;BMP280;57876;47.792;12.960;2022-10-16T15:48:19;97185.28;;;18.94
70435;BMP280;57876;47.792;12.960;2022-10-16T15:50:43;97182.69;;;18.96
70435;BMP280;57876;47.792;12.960;2022-10-16T15:53:07;97179.22;;;18.96
70435;BMP280;57876;47.792;12.960;2022-10-16T15:55:33;97184.88;;;18.98
70435;BMP280;57876;47.792;12.960;2022-10-16T15:57:58;97187.75;;;19.00
70435;BMP280;57876;47.792;12.960;2022-10-16T16:00:22;97187.38;;;19.03
70435;BMP280;57876;47.792;12.960;2022-10-16T16:02:51;97180.00;;;19.06
70435;BMP280;57876;47.792;12.960;2022-10-16T16:05:16;97196.03;;;19.09
70435;BMP280;57876;47.792;12.960;2022-10-16T16:07:40;97196.94;;;19.12
70435;BMP280;57876;47.792;12.960;2022-10-16T16:10:07;97194.50;;;19.16
70435;BMP280;57876;47.792;12.960;2022-10-16T16:12:32;97201.41;;;19.17
70435;BMP280;57876;47.792;12.960;2022-10-16T16:14:57;97204.34;;;19.19
70435;BMP280;57876;47.792;12.960;2022-10-16T16:17:21;97198.28;;;19.20
70435;BMP280;57876;47.792;12.960;2022-10-16T16:19:46;97205.94;;;19.22
70435;BMP280;57876;47.792;12.960;2022-10-16T16:22:11;97203.91;;;19.22
70435;BMP280;57876;47.792;12.960;2022-10-16T16:24:35;97214.88;;;19.22